Terminal Aerodrome Forecast
Issued by NWS Pocatello, ID

Home | Current Version | Previous Version | Text Only | Print | Product List | Glossary On
Versions: 1 2 3 4 5 6 7 8 9 10 11 12 13 14 15
000
FTUS45 KPIH 211700
TAFIDA
TAF
KIDA 211720Z 2118/2218 VRB06KT P6SM SCT100
     FM212000 VRB06KT P6SM VCTS SCT090 BKN100CB
     FM220200 19012KT P6SM VCTS SCT040 OVC090CB
     FM220500 VRB06KT P6SM -SHRA VCTS SCT030 BKN060CB=

USA.gov is the U.S. government's official web portal to all federal, state and local government web resources and services.